Time;durP1;ratioP1;P1;durP2;ratioP2;P2;SDS_P1;SDS_P2;PMS_P1;PMS_P2;Temp;Humidity;BMP_temperature;BMP_pressure;BME280_temperature;BME280_humidity;BME280_pressure;Samples;Min_cycle;Max_cycle;Signal;HPM_P1;HPM_P2
2022/02/28 00:01:36;;;;;;;24.50;12.53;;;;;;;1.87;100.00;102832.09;7393129;19;20442;-47
2022/02/28 00:04:06;;;;;;;23.93;11.50;;;;;;;1.86;100.00;102833.75;7397818;19;21015;-46
2022/02/28 00:06:36;;;;;;;30.40;13.57;;;;;;;1.97;100.00;102834.03;7395335;19;20438;-48
2022/02/28 00:09:05;;;;;;;28.17;12.60;;;;;;;1.94;100.00;102838.78;7396274;19;20400;-48
2022/02/28 00:11:35;;;;;;;27.43;12.97;;;;;;;2.07;100.00;102831.75;7391416;19;20431;-45
2022/02/28 00:14:04;;;;;;;25.57;12.13;;;;;;;2.38;100.00;102831.63;7396553;19;20420;-46
2022/02/28 00:16:37;;;;;;;27.88;12.88;;;;;;;2.21;100.00;102840.00;7394716;19;20437;-50
2022/02/28 00:19:06;;;;;;;23.67;11.20;;;;;;;2.22;100.00;102837.63;7397933;19;20149;-46
2022/02/28 00:21:38;;;;;;;27.73;12.60;;;;;;;1.71;100.00;102840.63;7394372;19;20446;-48
2022/02/28 00:24:08;;;;;;;23.77;12.00;;;;;;;1.54;100.00;102840.38;7397566;19;20785;-49
2022/02/28 00:26:38;;;;;;;20.93;11.60;;;;;;;1.17;100.00;102844.72;7394596;19;20990;-48
2022/02/28 00:29:07;;;;;;;29.60;13.40;;;;;;;1.29;100.00;102827.44;7395501;19;20383;-46
2022/02/28 00:31:39;;;;;;;26.25;12.50;;;;;;;1.64;100.00;102827.91;7393240;19;20514;-48
2022/02/28 00:34:09;;;;;;;28.00;12.93;;;;;;;1.33;100.00;102824.50;7396411;19;20190;-47
2022/02/28 00:36:38;;;;;;;29.73;13.80;;;;;;;1.23;100.00;102832.72;7390569;19;20971;-47
2022/02/28 00:39:08;;;;;;;32.53;12.40;;;;;;;1.25;100.00;102825.25;7397027;19;20768;-47
2022/02/28 00:41:38;;;;;;;27.98;13.30;;;;;;;1.14;100.00;102818.97;7394059;19;20413;-46
2022/02/28 00:44:08;;;;;;;27.50;13.20;;;;;;;0.93;100.00;102819.25;7396755;19;20172;-47
2022/02/28 00:46:43;;;;;;;31.30;13.15;;;;;;;0.82;100.00;102817.09;7393194;19;20439;-45
2022/02/28 00:49:13;;;;;;;30.07;12.50;;;;;;;0.97;100.00;102811.97;7394709;19;20128;-48
2022/02/28 00:51:42;;;;;;;29.42;13.13;;;;;;;0.83;100.00;102808.78;7391345;19;20426;-46
2022/02/28 00:54:12;;;;;;;28.75;13.45;;;;;;;0.89;100.00;102799.31;7395847;19;20162;-49
2022/02/28 00:56:43;;;;;;;27.35;13.55;;;;;;;0.77;100.00;102803.00;7393212;19;20194;-46
2022/02/28 00:59:13;;;;;;;26.85;13.10;;;;;;;0.57;100.00;102799.06;7396783;19;20133;-48
2022/02/28 01:01:47;;;;;;;27.35;13.45;;;;;;;0.60;100.00;102786.72;7392004;19;20238;-49
2022/02/28 01:04:17;;;;;;;22.73;12.57;;;;;;;0.40;100.00;102790.41;7395687;19;20533;-45
2022/02/28 01:06:46;;;;;;;27.45;13.20;;;;;;;0.61;100.00;102780.91;7390041;19;20194;-50
2022/02/28 01:09:16;;;;;;;29.17;13.48;;;;;;;0.75;100.00;102776.47;7393449;19;20133;-47
2022/02/28 01:11:48;;;;;;;27.75;13.73;;;;;;;0.62;100.00;102784.34;7393337;19;20192;-44
2022/02/28 01:14:17;;;;;;;28.42;12.95;;;;;;;0.60;100.00;102774.00;7395545;19;20270;-45
2022/02/28 01:16:51;;;;;;;30.55;12.88;;;;;;;0.69;100.00;102760.53;7393475;19;20197;-49
2022/02/28 01:19:21;;;;;;;23.23;12.05;;;;;;;0.58;100.00;102761.84;7395122;19;20127;-45
2022/02/28 01:21:51;;;;;;;30.60;13.48;;;;;;;0.53;100.00;102766.41;7393486;19;20191;-47
2022/02/28 01:24:20;;;;;;;31.17;13.30;;;;;;;0.57;100.00;102766.06;7394237;19;20173;-45
2022/02/28 01:26:52;;;;;;;24.35;12.10;;;;;;;0.41;100.00;102765.91;7393500;19;20190;-45
2022/02/28 01:29:22;;;;;;;33.22;13.05;;;;;;;0.52;100.00;102762.97;7389195;19;20133;-50
2022/02/28 01:31:56;;;;;;;27.98;12.82;;;;;;;0.38;100.00;102765.56;7386938;19;20222;-48
2022/02/28 01:34:26;;;;;;;24.48;11.85;;;;;;;0.07;100.00;102762.91;7389737;19;20542;-48
2022/02/28 01:36:55;;;;;;;32.22;12.90;;;;;;;0.03;100.00;102755.66;7386265;19;20190;-46
2022/02/28 01:39:25;;;;;;;27.63;13.68;;;;;;;0.21;100.00;102740.75;7389571;19;20488;-49
2022/02/28 01:41:56;;;;;;;33.42;12.73;;;;;;;0.38;100.00;102738.53;7384756;19;20186;-50
2022/02/28 01:44:26;;;;;;;26.67;12.80;;;;;;;0.45;100.00;102739.25;7389271;19;20170;-50
2022/02/28 01:47:02;;;;;;;27.75;12.48;;;;;;;0.28;100.00;102739.81;7387776;19;20187;-48
2022/02/28 01:49:31;;;;;;;26.63;12.48;;;;;;;0.31;100.00;102737.66;7390438;19;20230;-50
2022/02/28 01:52:01;;;;;;;30.02;11.45;;;;;;;0.18;100.00;102736.22;7389356;19;20190;-46
2022/02/28 01:54:31;;;;;;;21.92;12.18;;;;;;;0.05;100.00;102731.34;7391656;19;20173;-47
2022/02/28 01:57:02;;;;;;;29.92;11.82;;;;;;;0.03;100.00;102727.75;7389181;19;20197;-47
2022/02/28 01:59:31;;;;;;;24.85;11.80;;;;;;;0.07;100.00;102719.75;7392340;19;20130;-49
2022/02/28 02:02:06;;;;;;;31.58;12.90;;;;;;;-0.10;100.00;102724.50;7381529;19;20980;-46
2022/02/28 02:04:36;;;;;;;27.73;11.75;;;;;;;-0.02;100.00;102719.59;7393283;19;20169;-47
2022/02/28 02:07:06;;;;;;;28.95;12.82;;;;;;;0.07;100.00;102721.38;7390888;19;20193;-50
2022/02/28 02:09:36;;;;;;;28.42;13.50;;;;;;;0.01;100.00;102724.13;7392858;19;20141;-47
2022/02/28 02:12:07;;;;;;;30.83;13.05;;;;;;;0.05;100.00;102727.94;7391782;19;20213;-46
2022/02/28 02:14:37;;;;;;;25.63;12.73;;;;;;;0.13;100.00;102724.63;7398612;19;20173;-50
2022/02/28 02:17:10;;;;;;;28.67;13.13;;;;;;;0.08;100.00;102729.19;7398071;19;20644;-51
2022/02/28 02:19:40;;;;;;;26.83;13.07;;;;;;;0.01;100.00;102725.75;7400834;19;20126;-50
2022/02/28 02:22:14;;;;;;;24.67;12.15;;;;;;;-0.15;100.00;102729.94;7398613;19;20186;-49
2022/02/28 02:24:43;;;;;;;26.17;12.40;;;;;;;-0.21;100.00;102728.34;7399789;19;20793;-47
2022/02/28 02:27:13;;;;;;;27.45;12.88;;;;;;;-0.27;100.00;102725.97;7398618;19;20645;-46
2022/02/28 02:29:43;;;;;;;28.80;12.77;;;;;;;-0.22;100.00;102726.50;7399390;19;20153;-47
2022/02/28 02:32:14;;;;;;;24.20;12.43;;;;;;;-0.29;100.00;102725.78;7397326;19;20194;-49
2022/02/28 02:34:44;;;;;;;26.38;12.15;;;;;;;-0.21;100.00;102728.34;7400008;19;20173;-48
2022/02/28 02:37:17;;;;;;;28.80;12.40;;;;;;;-0.28;100.00;102727.63;7395262;19;20186;-45
2022/02/28 02:39:47;;;;;;;25.33;12.27;;;;;;;-0.29;100.00;102723.25;7401206;19;20135;-48
2022/02/28 02:42:16;;;;;;;28.92;12.68;;;;;;;-0.24;100.00;102728.88;7398234;19;20182;-48
2022/02/28 02:44:46;;;;;;;28.05;12.65;;;;;;;-0.20;100.00;102715.81;7398946;19;20158;-46
2022/02/28 02:47:16;;;;;;;30.83;12.73;;;;;;;-0.19;100.00;102716.72;7398303;19;20656;-48
2022/02/28 02:49:45;;;;;;;28.30;12.85;;;;;;;-0.20;100.00;102715.81;7398851;19;20135;-48
2022/02/28 02:52:17;;;;;;;32.15;12.82;;;;;;;-0.26;100.00;102710.00;7397838;19;20190;-44
2022/02/28 02:54:47;;;;;;;25.35;12.05;;;;;;;-0.31;100.00;102709.47;7398810;19;20170;-48
2022/02/28 02:57:17;;;;;;;33.85;14.35;;;;;;;-0.39;100.00;102714.38;7396892;19;20190;-46
2022/02/28 02:59:47;;;;;;;43.03;13.50;;;;;;;-0.20;100.00;102705.66;7396057;19;20180;-46
2022/02/28 03:02:16;;;;;;;27.90;13.10;;;;;;;-0.34;100.00;102709.13;7395747;19;20186;-53
2022/02/28 03:04:46;;;;;;;28.90;12.90;;;;;;;-0.29;100.00;102708.03;7399197;19;20163;-48
2022/02/28 03:07:19;;;;;;;30.02;13.25;;;;;;;-0.36;100.00;102709.69;7397747;19;20194;-46
2022/02/28 03:09:49;;;;;;;25.50;11.77;;;;;;;-0.47;100.00;102708.44;7398759;19;20131;-47
2022/02/28 03:12:19;;;;;;;30.05;13.70;;;;;;;-0.47;100.00;102704.25;7396989;19;20262;-46
2022/02/28 03:14:48;;;;;;;33.08;13.60;;;;;;;-0.49;100.00;102694.63;7398457;19;20181;-45
2022/02/28 03:17:18;;;;;;;30.55;13.68;;;;;;;-0.42;100.00;102690.47;7396662;19;20542;-46
2022/02/28 03:19:47;;;;;;;24.20;12.10;;;;;;;-0.35;100.00;102688.66;7398770;19;20127;-49
2022/02/28 03:22:19;;;;;;;31.00;13.52;;;;;;;-0.17;100.00;102690.81;7397016;19;20253;-47
2022/02/28 03:24:49;;;;;;;24.40;11.98;;;;;;;-0.10;100.00;102688.97;7398428;19;20173;-51
2022/02/28 03:27:18;;;;;;;25.55;12.50;;;;;;;-0.14;100.00;102686.06;7396463;19;20668;-45
2022/02/28 03:29:48;;;;;;;23.45;12.70;;;;;;;-0.34;100.00;102685.38;7397162;19;20135;-50
2022/02/28 03:32:17;;;;;;;32.15;13.52;;;;;;;-0.33;100.00;102688.13;7395507;19;20196;-47
2022/02/28 03:34:47;;;;;;;27.02;13.23;;;;;;;-0.23;100.00;102684.09;7397893;19;20617;-48
2022/02/28 03:37:16;;;;;;;36.50;14.05;;;;;;;-0.23;100.00;102687.56;7396391;19;20194;-51
2022/02/28 03:39:48;;;;;;;28.85;13.32;;;;;;;-0.25;100.00;102675.41;7398269;19;20127;-46
2022/02/28 03:42:18;;;;;;;29.80;13.25;;;;;;;-0.24;100.00;102677.22;7387819;19;20193;-45
2022/02/28 03:44:47;;;;;;;30.58;14.35;;;;;;;-0.45;100.00;102676.53;7398310;19;20171;-47
2022/02/28 03:47:17;;;;;;;25.98;12.65;;;;;;;-0.50;100.00;102680.16;7394756;19;20182;-49
2022/02/28 03:49:46;;;;;;;27.52;13.32;;;;;;;-0.42;100.00;102675.25;7396985;19;20138;-45
2022/02/28 03:52:16;;;;;;;30.88;13.38;;;;;;;-0.56;100.00;102682.88;7395998;19;20197;-46
2022/02/28 03:54:48;;;;;;;29.48;13.18;;;;;;;-0.05;100.00;102673.53;7397015;19;20162;-46
2022/02/28 03:57:17;;;;;;;32.58;14.77;;;;;;;0.40;100.00;102668.50;7389243;19;20186;-49
2022/02/28 03:59:47;;;;;;;31.95;14.40;;;;;;;0.30;100.00;102675.78;7398170;19;20127;-49
2022/02/28 04:02:16;;;;;;;28.25;13.30;;;;;;;-0.07;100.00;102682.63;7395046;19;20200;-46
2022/02/28 04:04:46;;;;;;;34.03;14.10;;;;;;;0.24;100.00;102673.47;7397627;19;20167;-46
2022/02/28 04:07:16;;;;;;;24.75;13.70;;;;;;;0.52;100.00;102673.16;7395513;19;20534;-46
2022/02/28 04:09:48;;;;;;;30.65;13.98;;;;;;;0.33;100.00;102681.22;7396636;19;20130;-49
2022/02/28 04:12:17;;;;;;;26.70;12.50;;;;;;;0.45;100.00;102681.69;7395747;19;20210;-47
2022/02/28 04:14:47;;;;;;;24.65;12.80;;;;;;;0.58;100.00;102690.72;7396263;19;20641;-50
2022/02/28 04:17:16;;;;;;;28.77;14.18;;;;;;;0.52;100.00;102690.94;7394832;19;20190;-47
2022/02/28 04:19:46;;;;;;;28.00;12.75;;;;;;;0.48;100.00;102696.38;7396978;19;20145;-47
2022/02/28 04:22:15;;;;;;;33.95;15.23;;;;;;;0.09;100.00;102697.06;7395036;19;20196;-48
2022/02/28 04:24:48;;;;;;;28.83;13.35;;;;;;;0.31;100.00;102697.91;7396556;19;20162;-48
2022/02/28 04:27:18;;;;;;;31.63;12.93;;;;;;;0.50;100.00;102695.84;7394690;19;20192;-49
2022/02/28 04:29:47;;;;;;;29.73;13.60;;;;;;;0.64;100.00;102699.94;7396544;19;20131;-45
2022/02/28 04:32:16;;;;;;;26.35;13.50;;;;;;;0.24;100.00;102701.38;7394905;19;20183;-51
2022/02/28 04:34:48;;;;;;;34.97;14.13;;;;;;;0.36;100.00;102699.34;7396900;19;20166;-48
2022/02/28 04:37:17;;;;;;;31.20;15.07;;;;;;;0.61;100.00;102699.59;7393120;19;20197;-48
2022/02/28 04:39:51;;;;;;;31.88;14.82;;;;;;;0.27;100.00;102700.84;7397306;19;20139;-45
2022/02/28 04:42:21;;;;;;;25.08;13.00;;;;;;;0.03;100.00;102704.91;7393056;19;20190;-47
2022/02/28 04:44:51;;;;;;;35.85;14.98;;;;;;;-0.43;100.00;102703.88;7395831;19;20159;-47
2022/02/28 04:47:22;;;;;;;31.45;14.77;;;;;;;-0.41;100.00;102699.00;7392367;19;20191;-47
2022/02/28 04:49:53;;;;;;;31.60;14.25;;;;;;;-0.23;100.00;102699.31;7396488;19;20131;-51
2022/02/28 04:52:22;;;;;;;30.33;14.02;;;;;;;-0.43;100.00;102711.50;7393664;19;20197;-49
2022/02/28 04:54:56;;;;;;;30.13;13.88;;;;;;;-0.41;100.00;102707.50;7396007;19;20166;-47
2022/02/28 04:57:25;;;;;;;35.50;15.00;;;;;;;-0.47;100.00;102703.34;7389556;19;20200;-51
2022/02/28 04:59:55;;;;;;;30.58;13.98;;;;;;;-0.72;100.00;102710.59;7392726;19;20123;-45
2022/02/28 05:02:24;;;;;;;34.33;14.40;;;;;;;-0.91;100.00;102703.34;7389584;19;20187;-47
2022/02/28 05:04:54;;;;;;;35.33;15.63;;;;;;;-0.64;100.00;102692.13;7395358;19;20165;-47
2022/02/28 05:07:24;;;;;;;27.00;14.20;;;;;;;-0.62;100.00;102688.13;7392629;19;20200;-46
2022/02/28 05:09:56;;;;;;;33.53;15.43;;;;;;;-0.92;100.00;102695.53;7395935;19;20130;-47
2022/02/28 05:12:25;;;;;;;33.03;15.18;;;;;;;-0.41;100.00;102688.84;7392995;19;20190;-45
2022/02/28 05:14:55;;;;;;;33.83;15.20;;;;;;;-0.35;100.00;102688.66;7394173;19;20162;-46
2022/02/28 05:17:24;;;;;;;35.40;15.30;;;;;;;-0.18;100.00;102689.00;7390204;19;20201;-47
2022/02/28 05:19:54;;;;;;;36.83;15.90;;;;;;;-0.02;100.00;102685.69;7391195;19;20127;-47
2022/02/28 05:22:24;;;;;;;35.72;14.98;;;;;;;0.05;100.00;102683.13;7388528;19;20258;-47
2022/02/28 05:24:56;;;;;;;28.85;13.77;;;;;;;0.15;100.00;102687.63;7391416;19;20155;-46
2022/02/28 05:27:25;;;;;;;35.50;15.40;;;;;;;-0.08;100.00;102692.59;7388524;19;20720;-46
2022/02/28 05:29:55;;;;;;;32.58;16.30;;;;;;;0.12;100.00;102689.81;7391722;19;20126;-47
2022/02/28 05:32:24;;;;;;;29.08;14.35;;;;;;;-0.29;100.00;102696.97;7389297;19;20190;-49
2022/02/28 05:34:54;;;;;;;34.38;15.45;;;;;;;-0.52;100.00;102697.72;7390881;19;20159;-50
2022/02/28 05:37:23;;;;;;;29.95;15.00;;;;;;;-0.57;100.00;102701.34;7390920;19;20205;-53
2022/02/28 05:39:55;;;;;;;33.47;15.32;;;;;;;-0.78;100.00;102710.75;7390800;19;20131;-47
2022/02/28 05:42:25;;;;;;;31.58;15.95;;;;;;;-0.21;100.00;102698.78;7387664;19;20201;-45
2022/02/28 05:44:54;;;;;;;35.08;15.60;;;;;;;-0.74;100.00;102707.88;7390228;19;20604;-48
2022/02/28 05:47:23;;;;;;;35.22;15.93;;;;;;;-0.80;100.00;102702.06;7387944;19;20204;-50
2022/02/28 05:49:53;;;;;;;34.60;15.20;;;;;;;-0.82;100.00;102708.59;7397516;19;20119;-47
2022/02/28 05:52:23;;;;;;;40.10;17.13;;;;;;;-0.91;100.00;102704.94;7395329;19;20521;-48
2022/02/28 05:54:53;;;;;;;33.67;15.52;;;;;;;-0.89;100.00;102703.50;7397038;19;20163;-49
2022/02/28 05:57:25;;;;;;;42.88;17.48;;;;;;;-1.08;100.00;102703.81;7391426;19;20186;-45
2022/02/28 05:59:55;;;;;;;38.92;16.85;;;;;;;-0.80;100.00;102704.59;7398429;19;20186;-45
2022/02/28 06:02:24;;;;;;;32.50;16.48;;;;;;;-1.04;100.00;102695.88;7396449;19;20637;-47
2022/02/28 06:04:54;;;;;;;39.72;16.60;;;;;;;-1.23;100.00;102703.81;7396647;19;20177;-48
2022/02/28 06:07:23;;;;;;;37.28;16.13;;;;;;;-0.87;100.00;102694.47;7394914;19;20194;-46
2022/02/28 06:09:53;;;;;;;44.08;17.95;;;;;;;-1.05;100.00;102696.59;7398649;19;20589;-50
2022/02/28 06:12:25;;;;;;;36.97;15.30;;;;;;;-0.90;100.00;102694.09;7394134;19;20190;-48
2022/02/28 06:15:14;;;;;;;36.90;15.90;;;;;;;-0.76;100.00;102696.66;7396749;19;20197;-48
2022/02/28 06:17:44;;;;;;;39.10;16.15;;;;;;;-1.01;100.00;102690.28;7392508;19;20194;-47
2022/02/28 06:20:14;;;;;;;35.95;15.80;;;;;;;-1.24;100.00;102702.00;7397606;19;20122;-48
2022/02/28 06:22:44;;;;;;;36.13;16.05;;;;;;;-0.62;100.00;102692.31;7395200;19;20190;-49
2022/02/28 06:25:13;;;;;;;38.13;16.20;;;;;;;-0.65;100.00;102702.06;7395833;19;20164;-48
2022/02/28 06:27:45;;;;;;;34.00;15.95;;;;;;;-0.34;100.00;102701.53;7393973;19;20194;-54
2022/02/28 06:30:17;;;;;;;33.53;15.82;;;;;;;-0.25;100.00;102705.84;7397172;19;20145;-50
2022/02/28 06:32:46;;;;;;;35.88;17.90;;;;;;;-0.42;100.00;102708.22;7389074;19;20530;-48
2022/02/28 06:35:16;;;;;;;38.72;16.52;;;;;;;-0.18;100.00;102698.22;7394894;19;20158;-49
2022/02/28 06:37:46;;;;;;;37.17;17.38;;;;;;;-0.11;100.00;102704.94;7391895;19;20194;-53
2022/02/28 06:40:15;;;;;;;43.03;17.67;;;;;;;-0.46;100.00;102713.66;7396804;19;20475;-46
2022/02/28 06:42:47;;;;;;;33.92;15.15;;;;;;;1.21;100.00;102700.31;7394284;19;20676;-48
2022/02/28 06:45:18;;;;;;;37.00;16.67;;;;;;;2.22;100.00;102706.81;7394935;19;20169;-49
2022/02/28 06:47:47;;;;;;;38.45;18.80;;;;;;;2.56;100.00;102729.13;7393090;19;20190;-46
2022/02/28 06:50:17;;;;;;;50.73;24.70;;;;;;;1.98;100.00;102760.34;7395947;19;20186;-48
2022/02/28 06:52:46;;;;;;;88.07;37.80;;;;;;;1.31;100.00;102764.91;7391328;19;20939;-50
2022/02/28 06:55:16;;;;;;;77.97;33.17;;;;;;;1.48;100.00;102770.25;7394475;19;20819;-49
2022/02/28 06:57:48;;;;;;;46.63;21.67;;;;;;;1.12;100.00;102783.19;7392420;19;20423;-46
2022/02/28 07:00:18;;;;;;;41.17;19.27;;;;;;;0.82;100.00;102785.72;7395474;19;20978;-47
2022/02/28 07:02:47;;;;;;;49.78;21.92;;;;;;;0.62;100.00;102785.25;7391985;19;20224;-45
2022/02/28 07:05:17;;;;;;;44.67;20.52;;;;;;;0.29;100.00;102782.28;7394463;19;20218;-48
2022/02/28 07:07:47;;;;;;;47.30;18.45;;;;;;;-0.22;100.00;102790.84;7391729;19;20186;-49
2022/02/28 07:10:16;;;;;;;41.35;19.98;;;;;;;-0.22;100.00;102779.78;7396066;19;20123;-49
2022/02/28 07:12:48;;;;;;;44.38;20.45;;;;;;;-0.10;100.00;102775.25;7391994;19;20190;-46
2022/02/28 07:15:18;;;;;;;44.95;20.55;;;;;;;0.01;100.00;102774.91;7394374;19;20169;-46
2022/02/28 07:17:48;;;;;;;37.90;17.77;;;;;;;-0.22;100.00;102778.16;7392000;19;20196;-45
2022/02/28 07:20:17;;;;;;;42.13;19.30;;;;;;;-0.03;100.00;102772.72;7396065;19;20123;-47
2022/02/28 07:22:47;;;;;;;43.58;20.55;;;;;;;-0.08;100.00;102773.81;7391086;19;20261;-50
2022/02/28 07:25:16;;;;;;;47.28;20.30;;;;;;;-0.08;100.00;102773.81;7393675;19;20618;-47
2022/02/28 07:27:48;;;;;;;44.05;20.52;;;;;;;1.48;100.00;102771.88;7392050;19;20193;-48
2022/02/28 07:30:18;;;;;;;41.20;18.48;;;;;;;1.83;100.00;102779.03;7397106;19;20127;-48
2022/02/28 07:32:48;;;;;;;83.32;35.72;;;;;;;1.19;100.00;102789.88;7393251;19;20190;-45
2022/02/28 07:35:20;;;;;;;38.65;18.13;;;;;;;0.46;100.00;102785.13;7393966;19;20628;-49
2022/02/28 07:37:49;;;;;;;46.47;20.48;;;;;;;0.06;100.00;102789.00;7391397;19;20198;-45
2022/02/28 07:40:19;;;;;;;46.13;20.25;;;;;;;-0.15;100.00;102784.88;7397424;19;20127;-51
2022/02/28 07:42:51;;;;;;;45.75;19.75;;;;;;;-0.11;100.00;102783.59;7389709;19;20194;-49
2022/02/28 07:45:21;;;;;;;43.60;19.67;;;;;;;-0.16;100.00;102775.44;7392830;19;20244;-49
2022/02/28 07:47:51;;;;;;;42.83;19.92;;;;;;;-0.23;100.00;102776.38;7392225;19;20207;-45
2022/02/28 07:50:21;;;;;;;44.88;19.55;;;;;;;-0.19;100.00;102780.16;7395953;19;20198;-49
2022/02/28 07:52:50;;;;;;;43.22;19.92;;;;;;;-0.25;100.00;102772.75;7392159;19;20190;-45
2022/02/28 07:55:20;;;;;;;48.53;20.45;;;;;;;-0.11;100.00;102781.06;7393052;19;20155;-46
2022/02/28 07:57:52;;;;;;;46.90;19.77;;;;;;;-0.24;100.00;102786.31;7393697;19;20186;-45
2022/02/28 08:00:23;;;;;;;47.58;19.95;;;;;;;-0.29;100.00;102783.25;7395207;19;20123;-49
2022/02/28 08:02:52;;;;;;;42.33;20.23;;;;;;;-0.27;100.00;102784.31;7390765;19;20209;-45
2022/02/28 08:05:22;;;;;;;42.22;18.67;;;;;;;-0.32;100.00;102775.25;7393025;19;20183;-45
2022/02/28 08:07:52;;;;;;;38.75;18.58;;;;;;;-0.21;100.00;102776.56;7390944;19;20196;-48
2022/02/28 08:10:21;;;;;;;40.30;20.77;;;;;;;-0.11;100.00;102770.94;7394162;19;20137;-47
2022/02/28 08:12:54;;;;;;;43.78;20.95;;;;;;;-0.17;100.00;102772.00;7386624;19;20196;-48
2022/02/28 08:15:23;;;;;;;44.22;19.80;;;;;;;-0.16;100.00;102773.81;7393260;19;20165;-49
2022/02/28 08:17:55;;;;;;;43.25;19.77;;;;;;;-0.09;100.00;102779.63;7389828;19;20198;-47
2022/02/28 08:20:25;;;;;;;46.55;18.92;;;;;;;-0.06;100.00;102785.06;7393594;19;20126;-46
2022/02/28 08:22:55;;;;;;;41.30;18.10;;;;;;;0.04;100.00;102775.25;7391423;19;20193;-47
2022/02/28 08:25:24;;;;;;;43.33;20.83;;;;;;;0.17;100.00;102784.28;7392746;19;20222;-45
2022/02/28 08:27:57;;;;;;;46.00;20.40;;;;;;;0.25;100.00;102789.53;7387518;19;20190;-46
2022/02/28 08:30:26;;;;;;;47.05;20.15;;;;;;;0.19;100.00;102792.97;7394304;19;20594;-47
2022/02/28 08:32:56;;;;;;;39.60;19.77;;;;;;;0.18;100.00;102792.09;7383802;19;20190;-48
2022/02/28 08:35:26;;;;;;;46.65;20.70;;;;;;;0.25;100.00;102799.69;7392111;19;20165;-45
2022/02/28 08:37:55;;;;;;;40.80;18.60;;;;;;;0.33;100.00;102798.06;7388668;19;20197;-47
2022/02/28 08:40:25;;;;;;;44.25;18.65;;;;;;;0.48;100.00;102798.00;7393992;19;20147;-45
2022/02/28 08:43:01;;;;;;;43.80;20.25;;;;;;;0.54;100.00;102798.72;7388264;19;20193;-47
2022/02/28 08:45:31;;;;;;;48.05;19.80;;;;;;;0.57;100.00;102794.00;7391835;19;20162;-46
2022/02/28 08:48:00;;;;;;;40.50;19.83;;;;;;;0.64;100.00;102799.03;7389858;19;20554;-48
2022/02/28 08:50:30;;;;;;;44.17;20.33;;;;;;;0.67;100.00;102807.00;7392323;19;20133;-48
2022/02/28 08:52:59;;;;;;;39.53;19.13;;;;;;;0.79;100.00;102811.69;7389402;19;20672;-47
2022/02/28 08:55:29;;;;;;;42.53;19.10;;;;;;;0.86;100.00;102809.13;7390705;19;20166;-51
2022/02/28 08:58:01;;;;;;;41.63;18.17;;;;;;;0.84;100.00;102818.22;7389331;19;20190;-47
2022/02/28 09:00:30;;;;;;;48.03;19.50;;;;;;;0.98;100.00;102824.88;7393266;19;20119;-51
2022/02/28 09:03:01;;;;;;;40.78;18.27;;;;;;;1.10;100.00;102827.91;7389079;19;20195;-46
2022/02/28 09:05:31;;;;;;;40.40;19.33;;;;;;;1.20;100.00;102833.31;7390581;19;20162;-48
2022/02/28 09:08:00;;;;;;;39.63;19.50;;;;;;;1.29;100.00;102832.53;7390135;19;20189;-48
2022/02/28 09:10:30;;;;;;;43.60;20.52;;;;;;;1.40;100.00;102837.19;7393894;19;20146;-45
2022/02/28 09:13:02;;;;;;;42.30;19.15;;;;;;;1.47;100.00;102833.66;7390312;19;20261;-47
2022/02/28 09:15:35;;;;;;;43.63;18.50;;;;;;;1.54;100.00;102831.06;7390532;19;20230;-48
2022/02/28 09:18:07;;;;;;;41.50;18.52;;;;;;;1.57;100.00;102835.59;7390947;19;20266;-45
2022/02/28 09:20:37;;;;;;;45.35;19.60;;;;;;;1.71;100.00;102845.69;7395130;19;20134;-46
2022/02/28 09:23:06;;;;;;;38.22;18.80;;;;;;;1.72;100.00;102847.50;7393560;19;20186;-45
2022/02/28 09:25:36;;;;;;;38.17;18.63;;;;;;;1.72;100.00;102850.06;7398695;19;20633;-46
2022/02/28 09:28:08;;;;;;;38.47;18.77;;;;;;;1.81;100.00;102849.25;7394989;19;20538;-47
2022/02/28 09:30:38;;;;;;;42.08;19.27;;;;;;;1.89;100.00;102856.09;7400788;19;20127;-47
2022/02/28 09:33:08;;;;;;;36.88;18.60;;;;;;;2.10;100.00;102857.56;7395605;19;20193;-47
2022/02/28 09:35:37;;;;;;;40.97;19.20;;;;;;;2.30;100.00;102858.81;7401549;19;20131;-46
2022/02/28 09:38:07;;;;;;;42.33;18.75;;;;;;;2.34;100.00;102860.97;7398228;19;20437;-50
2022/02/28 09:40:37;;;;;;;41.97;19.40;;;;;;;2.28;100.00;102863.78;7401600;19;20153;-49
2022/02/28 09:43:09;;;;;;;39.90;18.60;;;;;;;2.40;100.00;102868.38;7396790;19;20431;-46
2022/02/28 09:45:39;;;;;;;36.73;17.80;;;;;;;2.42;100.00;102867.81;7399367;19;20924;-48
2022/02/28 09:48:09;;;;;;;40.00;19.63;;;;;;;2.53;100.00;102881.75;7395004;19;20434;-46
2022/02/28 09:50:39;;;;;;;39.70;18.93;;;;;;;2.63;100.00;102882.72;7399521;19;20461;-47
2022/02/28 09:53:14;;;;;;;41.07;19.97;;;;;;;2.46;100.00;102884.34;7398285;19;20453;-49
2022/02/28 09:55:44;;;;;;;36.73;16.80;;;;;;;2.58;100.00;102878.75;7398657;19;20398;-44
2022/02/28 09:58:16;;;;;;;46.40;20.47;;;;;;;2.62;100.00;102886.00;7394965;19;20404;-48
2022/02/28 10:00:48;;;;;;;37.03;17.37;;;;;;;2.85;100.00;102885.94;7398702;19;20383;-48
2022/02/28 10:03:18;;;;;;;44.60;19.90;;;;;;;3.08;100.00;102890.06;7393809;19;20824;-48
2022/02/28 10:05:47;;;;;;;38.70;18.40;;;;;;;3.25;100.00;102889.28;7398746;19;20395;-46
2022/02/28 10:08:19;;;;;;;44.07;20.43;;;;;;;3.31;100.00;102883.91;7394278;19;20426;-45
2022/02/28 10:10:48;;;;;;;39.03;20.17;;;;;;;3.42;100.00;102883.41;7398638;19;20395;-52
2022/02/28 10:13:28;;;;;;;41.40;20.20;;;;;;;3.60;100.00;102878.41;7394282;19;20854;-53
2022/02/28 10:16:01;;;;;;;37.90;17.43;;;;;;;3.73;100.00;102876.38;7398758;19;20384;-46
2022/02/28 10:18:32;;;;;;;35.90;17.77;;;;;;;3.80;100.00;102884.69;7397463;19;20434;-49
2022/02/28 10:21:01;;;;;;;42.03;18.97;;;;;;;3.94;100.00;102892.09;7397704;19;20375;-46
2022/02/28 10:23:33;;;;;;;36.80;18.37;;;;;;;4.01;100.00;102893.66;7395850;19;20430;-49
2022/02/28 10:26:03;;;;;;;35.63;17.57;;;;;;;3.85;100.00;102897.16;7398281;19;20379;-47
2022/02/28 10:28:38;;;;;;;34.40;17.90;;;;;;;3.82;100.00;102907.09;7396985;19;20407;-49
2022/02/28 10:31:08;;;;;;;34.53;17.27;;;;;;;3.91;100.00;102912.25;7397488;19;20741;-52
2022/02/28 10:33:41;;;;;;;40.30;19.83;;;;;;;3.75;100.00;102915.75;7395325;19;20852;-48
2022/02/28 10:36:15;;;;;;;35.20;16.67;;;;;;;3.68;100.00;102917.53;7394810;19;20910;-47
2022/02/28 10:38:47;;;;;;;32.70;17.20;;;;;;;3.59;100.00;102923.44;7396554;19;20366;-47
2022/02/28 10:41:19;;;;;;;36.13;17.77;;;;;;;3.71;100.00;102913.63;7387945;19;20463;-45
2022/02/28 10:43:54;;;;;;;34.63;17.40;;;;;;;3.82;100.00;102919.84;7396784;19;20436;-46
2022/02/28 10:46:26;;;;;;;34.17;16.10;;;;;;;3.78;100.00;102925.38;7392966;19;20379;-49
2022/02/28 10:48:57;;;;;;;35.10;16.50;;;;;;;3.71;100.00;102910.16;7396883;19;20380;-47
2022/02/28 10:51:27;;;;;;;34.63;16.23;;;;;;;3.71;100.00;102922.94;7393486;19;20455;-53
2022/02/28 10:54:11;;;;;;;34.53;17.33;;;;;;;3.72;100.00;102922.19;7395872;19;20435;-47
2022/02/28 10:56:50;;;;;;;32.37;16.30;;;;;;;3.92;100.00;102925.19;7392256;19;20744;-51
2022/02/28 10:59:24;;;;;;;32.37;15.87;;;;;;;4.01;100.00;102924.31;7395683;19;20917;-50
2022/02/28 11:01:54;;;;;;;32.43;16.37;;;;;;;4.15;100.00;102928.31;7393184;19;20419;-49
2022/02/28 11:04:32;;;;;;;52.87;20.77;;;;;;;4.18;100.00;102933.72;7395560;19;20452;-49
2022/02/28 11:07:02;;;;;;;29.93;14.87;;;;;;;3.99;100.00;102926.69;7392334;19;20753;-49
2022/02/28 11:09:37;;;;;;;33.70;15.73;;;;;;;4.03;100.00;102920.25;7394924;19;20936;-51
2022/02/28 11:12:24;;;;;;;31.73;15.97;;;;;;;4.28;100.00;102925.34;7390777;19;20422;-50
2022/02/28 11:14:59;;;;;;;29.67;15.97;;;;;;;4.30;100.00;102926.38;7392595;19;20946;-52
2022/02/28 11:17:30;;;;;;;33.63;15.07;;;;;;;4.42;100.00;102930.19;7393278;19;20457;-55
2022/02/28 11:20:05;;;;;;;29.47;15.30;;;;;;;4.48;100.00;102927.38;7395524;19;20391;-49
2022/02/28 11:22:34;;;;;;;29.40;15.67;;;;;;;4.54;100.00;102930.56;7392325;19;20415;-51